Vermilion, Ohio
Current Conditions -  °F | °C
As of 10:53 PM on Tuesday 21 Oct 2014 (Local Time) from KLPR Reporting Station
Overcast Overcast  
Wind Chill: 42°   Ceiling: 1500
Heat Index: 47°   Visibility: 10mi
Dew Point: 43°   Wind: 10mph
Humidity: 86%   Direction: 20°NNE
Pressure: 30.13"   Gusts: 20mph
Location:  41.42°N, 82.36°W
Report Text: KLPR 220253Z AUTO 02009G17KT 10SM OVC015 08/06 A3013 RMK AO2 RAE14 SLP207 P0000 60003 T00830061 51016 TSNO
Loading
Personal Weather Stations






























Interactive Weather Map
Tropical Storm Tracking
New forecast layout! Learn more

10-Day Weather Forecast

Advertisements
Track Severe Weather on mobile